This is the latest recevied weather packets stored in our database for station/object WV8BRW. If no packets are shown the sender has not sent any weather packets the latest 1 day(s).
| Time | Temp. | Humidity | Pressure | Rain* | Wind** | Luminosity | Snow |
|---|---|---|---|---|---|---|---|
| 1778010263 | 23.89° C | 56% | 1008.3 hPa | 0 mm | 0.45 m/s, 346° | 203 W/m² | - |
| 1778009963 | 23.89° C | 58% | 1008.5 hPa | 0 mm | 0.89 m/s, 41° | 216 W/m² | - |
| 1778009661 | 23.89° C | 57% | 1008.4 hPa | 0 mm | 0.45 m/s, 339° | 272 W/m² | - |
| 1778009358 | 23.89° C | 58% | 1008.7 hPa | 0 mm | 0 m/s | 303 W/m² | - |
| 1778009056 | 23.89° C | 58% | 1008.7 hPa | 0 mm | 0 m/s | 202 W/m² | - |
| 1778008753 | 23.89° C | 56% | 1008.9 hPa | 0 mm | 0.45 m/s, 290° | 219 W/m² | - |
| 1778008452 | 23.89° C | 51% | 1009.2 hPa | 0 mm | 0.45 m/s, 343° | 266 W/m² | - |
| 1778008149 | 23.89° C | 53% | 1009.2 hPa | 0 mm | 0.45 m/s, 343° | 243 W/m² | - |
| 1778007844 | 23.89° C | 54% | 1008.9 hPa | 0 mm | 0.89 m/s, 253° | 329 W/m² | - |
| 1778007539 | 23.89° C | 54% | 1009.2 hPa | 0 mm | 0 m/s | 341 W/m² | - |
| 1778007236 | 23.89° C | 61% | 1008.8 hPa | 0 mm | 0 m/s | 312 W/m² | - |
| 1778006932 | 23.89° C | 53% | 1009.1 hPa | 0 mm | 1.34 m/s, 12° | 293 W/m² | - |
| 1778006629 | 23.89° C | 52% | 1009.3 hPa | 0 mm | 0.45 m/s, 307° | 298 W/m² | - |
| 1778006327 | 23.89° C | 56% | 1009.4 hPa | 0 mm | 0.45 m/s, 298° | 272 W/m² | - |
| 1778006023 | 23.89° C | 55% | 1009.4 hPa | 0 mm | 0.45 m/s, 249° | 413 W/m² | - |
| 1778005720 | 23.89° C | 54% | 1009.4 hPa | 0 mm | 0 m/s | 243 W/m² | - |
| 1778005417 | 23.89° C | 53% | 1009.5 hPa | 0 mm | 1.34 m/s, 117° | 360 W/m² | - |
| 1778005114 | 23.89° C | 57% | 1009.6 hPa | 0 mm | 0 m/s | 344 W/m² | - |
| 1778004811 | 23.89° C | 56% | 1009.8 hPa | 0 mm | 1.34 m/s, 256° | 395 W/m² | - |
| 1778004507 | 23.89° C | 56% | 1009.9 hPa | 0 mm | 0.45 m/s, 349° | 284 W/m² | - |
| 1778004204 | 23.89° C | 62% | 1009.5 hPa | 0 mm | 0.45 m/s, 5° | 370 W/m² | - |
| 1778003900 | 23.33° C | 56% | 1009.6 hPa | 0 mm | 0.45 m/s, 346° | 305 W/m² | - |
| 1778003597 | 23.33° C | 58% | 1009.6 hPa | 0 mm | 0 m/s | 275 W/m² | - |
| 1778003294 | 22.78° C | 56% | 1009.6 hPa | 0 mm | 0 m/s | 245 W/m² | - |
| 1778002991 | 22.78° C | 54% | 1009.8 hPa | 0 mm | 0.89 m/s, 5° | 260 W/m² | - |
* Rain latest hour (hover to see other rain measurements)
** Current wind speed in m/s (hover to see current wind gust speed)